F.r. Bigelow — WDB8153 — position and weather

sailwx.info

Track history (hours):
 
Tides and Currents Weather Stations Pressure Air Temp Water Temp Dewpoint Dewpoint Depression Visibility Wind Speed Wind Dir Waves Ship Positions

F.r. Bigelow

Owner: INGRAM BARGE COMPANY, Nashville, TN. More information available from US FCC via Universal Licensing System and Coast Guard Vessel Documentation Center.

Last reported at 2015-Jan-28 14:19 UTC. Time now 2015-Jan-28 16:19 UTC.
Position N 29°60' W 090°48'.

Length 46 m; draft 2.7 m.

Type: Tow > 200 m length. MMSI: 366953890.

Date/timePositionNaut miles runAvg speedWind from/ knotsBaromVisibWave heightAir tempDewpointWater temp
2015-Jan-28 14:19N 29°60' W 090°48'2 2.3
2015-Jan-28 13:34N 30°01' W 090°46'5 3.8
2015-Jan-28 12:21N 30°02' W 090°41'3 3.4
2015-Jan-28 11:22N 30°02' W 090°37'3 2.7
2015-Jan-28 10:18N 30°03' W 090°34'2 2.0
2015-Jan-28 09:06N 30°03' W 090°31'6 0.3
2015-Jan-27 12:30N 29°60' W 090°25'2 1.8
2015-Jan-27 11:29N 29°58' W 090°24'0 0.0
2015-Jan-27 10:33N 29°58' W 090°24'0 0.0
2015-Jan-27 09:33N 29°58' W 090°24'0 0.0
2015-Jan-27 08:33N 29°58' W 090°24'0 0.0
2015-Jan-27 07:34N 29°58' W 090°24'0 0.0
2015-Jan-27 06:33N 29°58' W 090°24'0 0.0
2015-Jan-27 05:20N 29°58' W 090°24'13 2.7
2015-Jan-27 00:22N 29°57' W 090°08'3 4.1
2015-Jan-26 23:32N 29°55' W 090°05'5 4.4
2015-Jan-26 22:31N 29°57' W 090°00'0 0.0
2015-Jan-26 02:19N 29°56' W 089°60'3 3.9
2015-Jan-26 01:33N 29°57' W 090°03'0 0.4
2015-Jan-26 00:30N 29°57' W 090°03'1 0.7
2015-Jan-25 23:33N 29°56' W 090°03'0 0.0
2015-Jan-25 22:33N 29°56' W 090°03'3 2.9
2015-Jan-25 21:33N 29°55' W 090°06'5 3.7
2015-Jan-25 20:19N 29°56' W 090°11'18 3.1
2015-Jan-25 14:25N 30°03' W 090°31'0 0.0
2015-Jan-25 13:30N 30°03' W 090°31'6 1.6
2015-Jan-25 09:34N 30°03' W 090°38'9 4.4
2015-Jan-25 07:31N 29°60' W 090°48'5 2.4
2015-Jan-25 05:17N 30°04' W 090°51'0 0.0
2015-Jan-25 04:30N 30°04' W 090°51'4 0.3
2015-Jan-24 13:26N 29°60' W 090°50'  
2015-Jan-21 14:32N 30°00' W 090°47'0 0.3
2015-Jan-21 13:33N 29°60' W 090°47'0 0.0
2015-Jan-21 12:33N 29°60' W 090°47'0 0.0
2015-Jan-21 11:34N 29°60' W 090°47'0 0.0
2015-Jan-21 10:26N 29°60' W 090°47'0 0.0
2015-Jan-21 09:25N 29°60' W 090°47'0 0.1
2015-Jan-21 08:24N 29°60' W 090°48'2 1.7
2015-Jan-21 07:17N 29°59' W 090°50'5 4.6
2015-Jan-21 06:13N 30°04' W 090°51'0 0.0
2015-Jan-21 05:33N 30°04' W 090°51'0 0.0
2015-Jan-21 03:04N 30°04' W 090°51'0 0.0
2015-Jan-21 01:13N 30°04' W 090°51'5 0.3
2015-Jan-20 07:30N 30°07' W 090°55'8 2.1
2015-Jan-20 03:27N 30°00' W 090°50'2 0.2
2015-Jan-19 14:29N 29°60' W 090°48'4 3.9
2015-Jan-19 13:33N 30°01' W 090°44'31 1.3
2015-Jan-18 14:20N 29°56' W 090°08'  
Track history (hours):
 
Tides and Currents Weather Stations Pressure Air Temp Water Temp Dewpoint Dewpoint Depression Visibility Wind Speed Wind Dir Waves Ship Positions

F.r. Bigelow

Owner: INGRAM BARGE COMPANY, Nashville, TN. More information available from US FCC via Universal Licensing System and Coast Guard Vessel Documentation Center.

Last reported at 2015-Jan-28 14:19 UTC. Time now 2015-Jan-28 16:19 UTC.
Position N 29°60' W 090°48'.

Length 46 m; draft 2.7 m.

Type: Tow > 200 m length. MMSI: 366953890.

Date/timePositionNaut miles runAvg speedWind from/ knotsBaromVisibWave heightAir tempDewpointWater temp
2015-Jan-28 14:19N 29°60' W 090°48'2 2.3
2015-Jan-28 13:34N 30°01' W 090°46'5 3.8
2015-Jan-28 12:21N 30°02' W 090°41'3 3.4
2015-Jan-28 11:22N 30°02' W 090°37'3 2.7
2015-Jan-28 10:18N 30°03' W 090°34'2 2.0
2015-Jan-28 09:06N 30°03' W 090°31'6 0.3
2015-Jan-27 12:30N 29°60' W 090°25'2 1.8
2015-Jan-27 11:29N 29°58' W 090°24'0 0.0
2015-Jan-27 10:33N 29°58' W 090°24'0 0.0
2015-Jan-27 09:33N 29°58' W 090°24'0 0.0
2015-Jan-27 08:33N 29°58' W 090°24'0 0.0
2015-Jan-27 07:34N 29°58' W 090°24'0 0.0
2015-Jan-27 06:33N 29°58' W 090°24'0 0.0
2015-Jan-27 05:20N 29°58' W 090°24'13 2.7
2015-Jan-27 00:22N 29°57' W 090°08'3 4.1
2015-Jan-26 23:32N 29°55' W 090°05'5 4.4
2015-Jan-26 22:31N 29°57' W 090°00'0 0.0
2015-Jan-26 02:19N 29°56' W 089°60'3 3.9
2015-Jan-26 01:33N 29°57' W 090°03'0 0.4
2015-Jan-26 00:30N 29°57' W 090°03'1 0.7
2015-Jan-25 23:33N 29°56' W 090°03'0 0.0
2015-Jan-25 22:33N 29°56' W 090°03'3 2.9
2015-Jan-25 21:33N 29°55' W 090°06'5 3.7
2015-Jan-25 20:19N 29°56' W 090°11'18 3.1
2015-Jan-25 14:25N 30°03' W 090°31'0 0.0
2015-Jan-25 13:30N 30°03' W 090°31'6 1.6
2015-Jan-25 09:34N 30°03' W 090°38'9 4.4
2015-Jan-25 07:31N 29°60' W 090°48'5 2.4
2015-Jan-25 05:17N 30°04' W 090°51'0 0.0
2015-Jan-25 04:30N 30°04' W 090°51'4 0.3
2015-Jan-24 13:26N 29°60' W 090°50'  
2015-Jan-21 14:32N 30°00' W 090°47'0 0.3
2015-Jan-21 13:33N 29°60' W 090°47'0 0.0
2015-Jan-21 12:33N 29°60' W 090°47'0 0.0
2015-Jan-21 11:34N 29°60' W 090°47'0 0.0
2015-Jan-21 10:26N 29°60' W 090°47'0 0.0
2015-Jan-21 09:25N 29°60' W 090°47'0 0.1
2015-Jan-21 08:24N 29°60' W 090°48'2 1.7
2015-Jan-21 07:17N 29°59' W 090°50'5 4.6
2015-Jan-21 06:13N 30°04' W 090°51'0 0.0
2015-Jan-21 05:33N 30°04' W 090°51'0 0.0
2015-Jan-21 03:04N 30°04' W 090°51'0 0.0
2015-Jan-21 01:13N 30°04' W 090°51'5 0.3
2015-Jan-20 07:30N 30°07' W 090°55'8 2.1
2015-Jan-20 03:27N 30°00' W 090°50'2 0.2
2015-Jan-19 14:29N 29°60' W 090°48'4 3.9
2015-Jan-19 13:33N 30°01' W 090°44'31 1.3
2015-Jan-18 14:20N 29°56' W 090°08'  

Dump ship's entire track history